Petersburgh, New York
Current Conditions -  °F | °C
As of 12:52 PM on Saturday 20 Dec 2014 (Local Time) from KAQW Reporting Station
Clear Clear  
Wind Chill: 27°   Ceiling: Unl
Heat Index: 32°   Visibility: 10mi
Dew Point: 19°   Wind: 5mph
Humidity: 59%   Direction: 290°WNW
Pressure: 30.24"   Gusts: NA
Location:  42.7192°N, 73.3641°W
Report Text: KAQW 201752Z AUTO 29004KT 10SM CLR 00/M07 A3024 RMK AO2 SLP249 T00001072 10000 21083 56017
Loading
Personal Weather Stations






























Interactive Weather Map New forecast layout! Learn more

10-Day Weather Forecast

Advertisements
Track Severe Weather on mobile